首页
METAR-TAF:

METAR-TAF

机场 :

Mosinee, 威斯康辛州, 美国

纬度: 44-47N, 经度: 089-40W, 海拔: 389米

当前天气观测

该预报发布于1小时和8分钟前的22:47 UTC
风速7节,风向东北
温度 17°C
湿度 55%
气压 1021 hPa
能見度: 16.1公里
散云层高于4900英尺
阴天层高于5500英尺

METAR: KCWA 032247Z 05007KT 10SM SCT049 OVC055 17/08 A3014

时间: 18:55 (23:55 UTC)

预报

该预报发布于35分钟前的23:20 UTC
预报有效从04日的 00点(UTC)到 04日的 24点(UTC)
风速6节,风向北转东北
能見度: 10公里
多云层高于6000英尺
从 04日的 0400点(UTC)
风速3节,风向
能見度: 10公里
散云层高于7000英尺
从 04日的 1500点(UTC)
风速7节,风向,有时为12节阵风
能見度: 10公里
散云层高于4500英尺
短暂存在
从 04日的 17点(UTC)到 04日的 20点(UTC)
多云层高于5000英尺

TAF: KCWA 032320Z 0400/0424 02006KT P6SM BKN060 FM040400 01003KT P6SM SCT070 FM041500 36007G12KT P6SM SCT045 TEMPO 0417/0420 BKN050

超过4000个机场的气象观测和天气预报(METAR&TAF报告)。

可查询的气象台以黄色和红色小点在地图上表示。

将鼠标移到小点上方,可查看气象台名称。

然后点击查看天气观测和预报。

如需切换地图:点击带黑十字的绿色按钮放大地图;点击带横线的绿色按钮缩小地图;或者点击绿色箭头查看邻近地区的地图。


METAR-TAF: